createdAt,value
2018-05-06T00:01:03.068Z,59.20
2018-05-06T00:03:31.474Z,59.30
2018-05-06T00:05:59.058Z,59.30
2018-05-06T00:08:26.698Z,59.50
2018-05-06T00:10:54.312Z,59.50
2018-05-06T00:13:22.689Z,59.60
2018-05-06T00:15:50.323Z,59.60
2018-05-06T00:18:17.909Z,59.50
2018-05-06T00:20:45.549Z,59.80
2018-05-06T00:23:13.200Z,59.40
2018-05-06T00:25:40.869Z,59.60
2018-05-06T00:28:08.493Z,59.80
2018-05-06T00:30:36.088Z,59.50
2018-05-06T00:33:03.701Z,60.30
2018-05-06T00:35:32.059Z,59.30
2018-05-06T00:37:59.677Z,59.30
2018-05-06T00:40:27.293Z,59.20
2018-05-06T00:42:54.907Z,59.70
2018-05-06T00:45:23.253Z,59.70
2018-05-06T00:47:51.690Z,59.80
2018-05-06T00:50:19.377Z,59.80
2018-05-06T00:52:46.984Z,60.70
2018-05-06T00:55:14.590Z,60.10
2018-05-06T00:57:42.176Z,60.10
2018-05-06T01:00:10.595Z,60.50
2018-05-06T01:02:38.978Z,60.60
2018-05-06T01:05:06.610Z,60.50
2018-05-06T01:07:34.201Z,60.80
2018-05-06T01:10:05.593Z,61.00
2018-05-06T01:12:35.471Z,61.60
2018-05-06T01:15:06.246Z,61.20
2018-05-06T01:17:36.001Z,61.10
2018-05-06T01:20:05.789Z,61.80
2018-05-06T01:22:38.378Z,62.00
2018-05-06T01:25:08.780Z,62.00
2018-05-06T01:27:39.026Z,61.80
2018-05-06T01:30:06.655Z,61.80
2018-05-06T01:32:34.309Z,61.70
2018-05-06T01:35:01.903Z,61.80
2018-05-06T01:37:29.531Z,61.70
2018-05-06T01:39:57.173Z,61.80
2018-05-06T01:42:24.780Z,61.30
2018-05-06T01:44:53.164Z,61.40
2018-05-06T01:47:21.581Z,61.60
2018-05-06T01:49:49.917Z,61.40
2018-05-06T01:52:18.268Z,61.80
2018-05-06T01:54:45.877Z,61.80
2018-05-06T01:57:13.481Z,61.70
2018-05-06T01:59:41.068Z,61.70
2018-05-06T02:02:08.682Z,61.80
2018-05-06T02:04:36.344Z,61.90
2018-05-06T02:07:03.935Z,61.40
2018-05-06T02:09:31.558Z,61.50
2018-05-06T02:11:59.257Z,61.70
2018-05-06T02:14:26.852Z,61.70
2018-05-06T02:16:55.259Z,62.10
2018-05-06T02:19:22.845Z,62.00
2018-05-06T02:21:50.471Z,61.60
2018-05-06T02:24:18.088Z,61.70
2018-05-06T02:26:45.704Z,61.60
2018-05-06T02:29:13.290Z,61.30
2018-05-06T02:31:40.925Z,61.20
2018-05-06T02:34:08.567Z,61.70
2018-05-06T02:36:36.962Z,61.50
2018-05-06T02:39:04.618Z,61.50
2018-05-06T02:41:32.211Z,61.40
2018-05-06T02:43:59.790Z,61.50
2018-05-06T02:46:27.441Z,61.40
2018-05-06T02:48:55.017Z,61.50
2018-05-06T02:51:22.648Z,61.40
2018-05-06T02:53:50.278Z,61.80
2018-05-06T02:56:18.633Z,61.40
2018-05-06T02:58:46.253Z,61.30
2018-05-06T03:01:13.844Z,61.20
2018-05-06T03:03:41.494Z,61.20
2018-05-06T03:06:09.130Z,61.00
2018-05-06T03:08:36.746Z,61.00
2018-05-06T03:11:04.379Z,60.70
2018-05-06T03:13:31.986Z,60.60
2018-05-06T03:15:59.573Z,60.70
2018-05-06T03:18:27.191Z,60.50
2018-05-06T03:20:54.772Z,60.70
2018-05-06T03:23:23.150Z,60.60
2018-05-06T03:25:51.514Z,60.80
2018-05-06T03:28:19.148Z,61.50
2018-05-06T03:30:46.783Z,61.00
2018-05-06T03:33:14.361Z,61.30
2018-05-06T03:35:42.012Z,61.50
2018-05-06T03:38:09.634Z,62.30
2018-05-06T03:40:37.987Z,61.50
2018-05-06T03:43:05.574Z,61.60
2018-05-06T03:45:33.970Z,61.40
2018-05-06T03:48:01.568Z,61.40
2018-05-06T03:50:29.203Z,61.70
2018-05-06T03:52:56.828Z,61.80
2018-05-06T03:55:24.482Z,62.20
2018-05-06T03:58:03.854Z,62.50
2018-05-06T04:00:45.326Z,62.10
2018-05-06T04:03:13.682Z,61.30
2018-05-06T04:05:41.323Z,61.30
2018-05-06T04:08:08.905Z,61.40
2018-05-06T04:10:36.486Z,62.10
2018-05-06T04:13:04.865Z,62.50
2018-05-06T04:15:33.257Z,62.10
2018-05-06T04:18:01.627Z,61.60
2018-05-06T04:20:29.962Z,61.60
2018-05-06T04:22:57.589Z,61.60
2018-05-06T04:25:25.206Z,61.70
2018-05-06T04:27:52.846Z,61.50
2018-05-06T04:30:20.442Z,62.50
2018-05-06T04:32:48.102Z,61.20
2018-05-06T04:35:15.678Z,61.50
2018-05-06T04:37:44.025Z,61.70
2018-05-06T04:40:11.653Z,61.70
2018-05-06T04:42:39.278Z,61.20
2018-05-06T04:45:07.658Z,62.50
2018-05-06T04:47:36.011Z,61.80
2018-05-06T04:50:03.625Z,61.70
2018-05-06T04:52:31.230Z,61.10
2018-05-06T04:54:58.854Z,61.00
2018-05-06T04:57:26.481Z,61.10
2018-05-06T04:59:54.881Z,61.90
2018-05-06T05:02:22.459Z,61.90
2018-05-06T05:04:50.049Z,61.80
2018-05-06T05:07:17.665Z,61.00
2018-05-06T05:09:45.237Z,61.60
2018-05-06T05:12:12.897Z,62.20
2018-05-06T05:14:40.517Z,62.30
2018-05-06T05:17:08.098Z,60.50
2018-05-06T05:19:36.488Z,60.50
2018-05-06T05:22:04.057Z,60.40
2018-05-06T05:24:31.644Z,60.20
2018-05-06T05:26:59.267Z,60.80
2018-05-06T05:29:26.882Z,60.30
2018-05-06T05:31:54.455Z,58.90
2018-05-06T05:34:22.163Z,59.50
2018-05-06T05:36:49.742Z,59.60
2018-05-06T05:39:17.333Z,58.80
2018-05-06T05:41:44.974Z,58.60
2018-05-06T05:44:12.589Z,58.70
2018-05-06T05:46:40.180Z,59.40
2018-05-06T05:49:07.808Z,59.20
2018-05-06T05:51:36.174Z,59.00
2018-05-06T05:54:03.791Z,58.90
2018-05-06T05:56:31.401Z,59.20
2018-05-06T05:58:59.798Z,58.30
2018-05-06T06:01:28.206Z,58.90
2018-05-06T06:03:55.845Z,58.90
2018-05-06T06:06:23.475Z,57.70
2018-05-06T06:08:51.109Z,58.60
2018-05-06T06:11:18.694Z,58.80
2018-05-06T06:13:46.306Z,58.00
2018-05-06T06:16:13.890Z,58.50
2018-05-06T06:18:41.506Z,58.30
2018-05-06T06:21:09.850Z,57.70
2018-05-06T06:23:37.471Z,57.70
2018-05-06T06:26:05.060Z,57.20
2018-05-06T06:28:32.690Z,57.30
2018-05-06T06:31:00.346Z,57.20
2018-05-06T06:33:27.980Z,56.90
2018-05-06T06:35:55.613Z,57.00
2018-05-06T06:38:23.285Z,56.60
2018-05-06T06:40:50.805Z,56.50
2018-05-06T06:43:18.434Z,56.60
2018-05-06T06:45:46.894Z,54.90
2018-05-06T06:48:14.487Z,54.90
2018-05-06T06:50:42.873Z,56.00
2018-05-06T06:53:10.471Z,56.00
2018-05-06T06:55:38.115Z,54.00
2018-05-06T06:58:05.694Z,55.20
2018-05-06T07:00:33.302Z,53.70
2018-05-06T07:03:01.653Z,53.40
2018-05-06T07:05:29.232Z,53.30
2018-05-06T07:07:57.073Z,52.30
2018-05-06T07:10:24.655Z,51.70
2018-05-06T07:12:52.277Z,51.50
2018-05-06T07:15:19.899Z,52.80
2018-05-06T07:17:48.267Z,51.50
2018-05-06T07:20:16.664Z,51.40
2018-05-06T07:22:44.385Z,51.30
2018-05-06T07:25:11.975Z,52.00
2018-05-06T07:27:40.338Z,50.30
2018-05-06T07:30:07.971Z,50.30
2018-05-06T07:32:35.605Z,50.30
2018-05-06T07:35:03.230Z,49.70
2018-05-06T07:37:31.589Z,49.50
2018-05-06T07:39:59.227Z,49.50
2018-05-06T07:42:26.835Z,49.00
2018-05-06T07:44:55.223Z,48.90
2018-05-06T07:47:23.587Z,48.90
2018-05-06T07:49:52.001Z,47.70
2018-05-06T07:52:19.601Z,47.70
2018-05-06T07:54:47.189Z,47.60
2018-05-06T07:57:15.592Z,48.30
2018-05-06T07:59:43.266Z,48.30
2018-05-06T08:02:10.871Z,47.80
2018-05-06T08:04:38.475Z,47.30
2018-05-06T08:07:06.123Z,47.80
2018-05-06T08:09:34.511Z,46.20
2018-05-06T08:12:02.156Z,46.10
2018-05-06T08:14:30.535Z,45.70
2018-05-06T08:16:58.167Z,45.60
2018-05-06T08:19:25.814Z,45.60
2018-05-06T08:21:53.519Z,47.40
2018-05-06T08:24:21.054Z,45.00
2018-05-06T08:26:48.642Z,44.20
2018-05-06T08:29:16.297Z,44.00
2018-05-06T08:31:43.887Z,45.40
2018-05-06T08:34:12.266Z,45.50
2018-05-06T08:36:39.907Z,45.50
2018-05-06T08:39:07.539Z,46.10
2018-05-06T08:41:35.124Z,44.10
2018-05-06T08:44:02.714Z,46.40
2018-05-06T08:46:31.133Z,45.10
2018-05-06T08:48:58.777Z,45.20
2018-05-06T08:51:26.488Z,46.10
2018-05-06T08:53:54.803Z,43.50
2018-05-06T08:56:23.193Z,46.10
2018-05-06T08:58:50.777Z,46.10
2018-05-06T09:01:18.366Z,43.80
2018-05-06T09:03:45.991Z,42.40
2018-05-06T09:06:13.610Z,43.20
2018-05-06T09:08:41.201Z,44.00
2018-05-06T09:11:08.887Z,44.20
2018-05-06T09:13:36.467Z,43.00
2018-05-06T09:16:04.098Z,42.90
2018-05-06T09:18:31.747Z,41.50
2018-05-06T09:20:59.351Z,42.40
2018-05-06T09:23:26.933Z,41.10
2018-05-06T09:25:54.539Z,40.50
2018-05-06T09:28:22.127Z,40.30
2018-05-06T09:30:49.754Z,41.80
2018-05-06T09:33:17.344Z,39.90
2018-05-06T09:35:44.975Z,40.20
2018-05-06T09:38:12.544Z,41.40
2018-05-06T09:40:40.183Z,42.20
2018-05-06T09:43:08.603Z,40.20
2018-05-06T09:45:36.195Z,40.00
2018-05-06T09:48:03.771Z,42.50
2018-05-06T09:50:31.393Z,42.10
2018-05-06T09:52:59.034Z,42.60
2018-05-06T09:55:26.657Z,40.40
2018-05-06T09:57:55.090Z,40.60
2018-05-06T10:00:22.748Z,40.50
2018-05-06T10:02:50.394Z,39.30
2018-05-06T10:05:17.993Z,38.90
2018-05-06T10:07:45.584Z,38.80
2018-05-06T10:10:13.207Z,41.20
2018-05-06T10:12:40.795Z,37.00
2018-05-06T10:15:08.437Z,40.00
2018-05-06T10:17:36.016Z,37.10
2018-05-06T10:20:03.653Z,37.80
2018-05-06T10:22:31.272Z,38.10
2018-05-06T10:24:59.646Z,37.80
2018-05-06T10:27:28.054Z,37.40
2018-05-06T10:29:55.718Z,37.30
2018-05-06T10:32:23.342Z,40.80
2018-05-06T10:34:50.962Z,37.40
2018-05-06T10:37:18.631Z,38.60
2018-05-06T10:39:46.268Z,37.90
2018-05-06T10:42:13.839Z,36.80
2018-05-06T10:44:41.437Z,37.00
2018-05-06T10:47:09.104Z,37.60
2018-05-06T10:49:36.749Z,36.90
2018-05-06T10:52:04.327Z,38.70
2018-05-06T10:54:31.953Z,37.20
2018-05-06T10:56:59.535Z,36.80
2018-05-06T10:59:27.160Z,37.70
2018-05-06T11:01:55.503Z,38.70
2018-05-06T11:04:23.854Z,36.00
2018-05-06T11:06:51.601Z,36.00
2018-05-06T11:09:19.197Z,36.70
2018-05-06T11:11:46.822Z,38.80
2018-05-06T11:14:14.455Z,35.60
2018-05-06T11:16:42.877Z,38.30
2018-05-06T11:19:10.547Z,38.30
2018-05-06T11:21:38.174Z,35.30
2018-05-06T11:24:05.754Z,35.60
2018-05-06T11:26:33.343Z,38.90
2018-05-06T11:29:00.972Z,37.30
2018-05-06T11:31:28.612Z,36.40
2018-05-06T11:33:56.224Z,35.70
2018-05-06T11:36:23.838Z,35.70
2018-05-06T11:38:51.440Z,35.60
2018-05-06T11:41:19.061Z,35.60
2018-05-06T11:43:46.847Z,36.10
2018-05-06T11:46:14.558Z,35.20
2018-05-06T11:48:42.172Z,34.80
2018-05-06T11:51:09.815Z,34.40
2018-05-06T11:53:37.419Z,35.10
2018-05-06T11:56:05.036Z,35.60
2018-05-06T11:58:32.614Z,35.10
2018-05-06T12:01:00.254Z,34.20
2018-05-06T12:03:27.852Z,35.10
2018-05-06T12:05:55.507Z,34.20
2018-05-06T12:08:23.159Z,34.20
2018-05-06T12:10:50.751Z,34.90
2018-05-06T12:13:18.384Z,34.30
2018-05-06T12:15:46.044Z,33.30
2018-05-06T12:18:13.713Z,33.10
2018-05-06T12:20:41.359Z,33.20
2018-05-06T12:23:08.932Z,33.10
2018-05-06T12:25:36.504Z,32.20
2018-05-06T12:28:04.142Z,31.70
2018-05-06T12:30:31.799Z,30.90
2018-05-06T12:32:59.375Z,31.40
2018-05-06T12:35:27.027Z,30.80
2018-05-06T12:37:54.639Z,31.10
2018-05-06T12:40:22.436Z,31.00
2018-05-06T12:42:50.022Z,30.80
2018-05-06T12:45:17.657Z,29.70
2018-05-06T12:47:45.310Z,31.10
2018-05-06T12:50:13.723Z,30.90
2018-05-06T12:52:41.326Z,30.80
2018-05-06T12:55:08.893Z,30.90
2018-05-06T12:57:36.545Z,29.80
2018-05-06T13:00:04.158Z,30.10
2018-05-06T13:02:31.833Z,30.20
2018-05-06T13:04:59.479Z,29.90
2018-05-06T13:07:27.099Z,29.70
2018-05-06T13:09:54.717Z,29.90
2018-05-06T13:12:22.431Z,30.50
2018-05-06T13:14:50.055Z,29.60
2018-05-06T13:17:17.633Z,29.50
2018-05-06T13:19:45.282Z,29.60
2018-05-06T13:22:12.877Z,29.30
2018-05-06T13:24:40.517Z,29.00
2018-05-06T13:27:08.106Z,30.10
2018-05-06T13:29:36.490Z,29.30
2018-05-06T13:32:04.266Z,29.30
2018-05-06T13:34:32.669Z,28.90
2018-05-06T13:37:00.385Z,28.90
2018-05-06T13:39:28.014Z,29.00
2018-05-06T13:41:55.616Z,29.80
2018-05-06T13:44:23.243Z,29.70
2018-05-06T13:46:50.894Z,29.70
2018-05-06T13:49:18.494Z,29.60
2018-05-06T13:51:46.177Z,28.40
2018-05-06T13:54:14.543Z,27.80
2018-05-06T13:56:42.166Z,27.80
2018-05-06T13:59:09.795Z,28.40
2018-05-06T14:01:37.417Z,28.10
2018-05-06T14:04:05.846Z,28.80
2018-05-06T14:06:33.488Z,28.80
2018-05-06T14:09:01.885Z,26.40
2018-05-06T14:11:29.537Z,26.40
2018-05-06T14:13:57.170Z,27.10
2018-05-06T14:16:24.797Z,26.90
2018-05-06T14:18:52.409Z,26.60
2018-05-06T14:21:20.823Z,27.00
2018-05-06T14:23:48.426Z,27.00
2018-05-06T14:26:16.085Z,27.10
2018-05-06T14:28:44.528Z,26.20
2018-05-06T14:31:12.173Z,26.20
2018-05-06T14:33:40.541Z,26.00
2018-05-06T14:36:08.938Z,25.60
2018-05-06T14:38:36.546Z,25.50
2018-05-06T14:41:04.149Z,25.00
2018-05-06T14:43:32.595Z,24.40
2018-05-06T14:46:00.235Z,24.30
2018-05-06T14:48:27.972Z,24.90
2018-05-06T14:50:56.421Z,25.80
2018-05-06T14:53:24.050Z,25.80
2018-05-06T14:55:52.593Z,24.50
2018-05-06T14:58:20.963Z,24.00
2018-05-06T15:00:49.315Z,25.00
2018-05-06T15:03:16.896Z,24.90
2018-05-06T15:05:45.329Z,24.70
2018-05-06T15:08:12.900Z,24.70
2018-05-06T15:10:40.558Z,25.60
2018-05-06T15:13:08.144Z,24.70
2018-05-06T15:15:35.853Z,24.90
2018-05-06T15:18:03.399Z,25.10
2018-05-06T15:20:31.002Z,24.00
2018-05-06T15:22:58.573Z,25.10
2018-05-06T15:25:26.197Z,24.00
2018-05-06T15:27:53.777Z,24.50
2018-05-06T15:30:21.360Z,24.80
2018-05-06T15:32:49.058Z,25.90
2018-05-06T15:35:17.415Z,24.70
2018-05-06T15:37:45.045Z,24.60
2018-05-06T15:40:12.650Z,24.40
2018-05-06T15:42:40.291Z,25.50
2018-05-06T15:45:07.957Z,24.70
2018-05-06T15:47:35.528Z,24.90
2018-05-06T15:50:03.142Z,23.80
2018-05-06T15:52:30.728Z,24.90
2018-05-06T15:54:58.334Z,24.40
2018-05-06T15:57:26.707Z,25.60
2018-05-06T15:59:55.058Z,24.80
2018-05-06T16:02:52.357Z,24.80
2018-05-06T16:05:19.977Z,25.10
2018-05-06T16:07:47.616Z,24.80
2018-05-06T16:10:15.257Z,25.70
2018-05-06T16:12:42.839Z,24.30
2018-05-06T16:15:10.524Z,24.50
2018-05-06T16:17:38.153Z,24.20
2018-05-06T16:20:05.804Z,24.60
2018-05-06T16:22:33.445Z,25.20
2018-05-06T16:25:01.054Z,25.60
2018-05-06T16:27:28.671Z,24.80
2018-05-06T16:29:57.009Z,26.00
2018-05-06T16:32:24.652Z,26.00
2018-05-06T16:34:52.259Z,24.90
2018-05-06T16:37:20.783Z,25.00
2018-05-06T16:39:48.458Z,25.00
2018-05-06T16:42:16.083Z,26.00
2018-05-06T16:44:43.682Z,25.90
2018-05-06T16:47:11.294Z,25.70
2018-05-06T16:49:39.037Z,26.50
2018-05-06T16:52:06.620Z,25.50
2018-05-06T16:54:35.001Z,25.60
2018-05-06T16:57:02.635Z,25.60
2018-05-06T16:59:30.241Z,26.00
2018-05-06T17:01:57.834Z,25.90
2018-05-06T17:04:25.442Z,26.10
2018-05-06T17:06:53.925Z,26.00
2018-05-06T17:09:21.478Z,26.00
2018-05-06T17:11:49.847Z,26.60
2018-05-06T17:14:17.466Z,26.50
2018-05-06T17:16:45.118Z,26.20
2018-05-06T17:19:12.709Z,26.30
2018-05-06T17:21:40.347Z,25.70
2018-05-06T17:24:08.007Z,26.20
2018-05-06T17:26:35.621Z,26.50
2018-05-06T17:29:03.987Z,27.00
2018-05-06T17:31:31.671Z,27.00
2018-05-06T17:34:00.174Z,27.20
2018-05-06T17:36:27.754Z,27.10
2018-05-06T17:38:55.368Z,26.80
2018-05-06T17:41:23.012Z,27.70
2018-05-06T17:43:50.683Z,27.30
2018-05-06T17:46:18.309Z,27.00
2018-05-06T17:48:45.950Z,26.00
2018-05-06T17:51:13.531Z,27.00
2018-05-06T17:53:41.118Z,27.50
2018-05-06T17:56:08.742Z,27.60
2018-05-06T17:58:36.347Z,27.20
2018-05-06T18:01:03.999Z,27.30
2018-05-06T18:03:31.653Z,28.10
2018-05-06T18:05:59.234Z,27.20
2018-05-06T18:08:27.675Z,27.90
2018-05-06T18:10:55.352Z,27.80
2018-05-06T18:13:22.944Z,27.90
2018-05-06T18:15:50.553Z,28.80
2018-05-06T18:18:18.187Z,27.90
2018-05-06T18:20:46.554Z,28.60
2018-05-06T18:23:14.992Z,28.40
2018-05-06T18:25:42.587Z,28.40
2018-05-06T18:28:10.190Z,29.40
2018-05-06T18:30:37.846Z,29.70
2018-05-06T18:33:05.503Z,30.00
2018-05-06T18:35:33.864Z,29.00
2018-05-06T18:38:02.808Z,29.20
2018-05-06T18:40:30.879Z,29.10
2018-05-06T18:42:58.744Z,29.10
2018-05-06T18:45:26.408Z,29.70
2018-05-06T18:47:54.062Z,29.80
2018-05-06T18:50:21.698Z,30.00
2018-05-06T18:52:50.050Z,30.20
2018-05-06T18:55:17.736Z,30.20
2018-05-06T18:57:46.101Z,30.70
2018-05-06T19:00:13.711Z,30.50
2018-05-06T19:02:41.309Z,30.20
2018-05-06T19:05:09.740Z,30.00
2018-05-06T19:07:37.379Z,30.00
2018-05-06T19:10:05.062Z,32.50
2018-05-06T19:12:32.696Z,31.30
2018-05-06T19:15:00.317Z,31.10
2018-05-06T19:17:27.931Z,31.10
2018-05-06T19:19:56.286Z,32.80
2018-05-06T19:22:23.900Z,32.80
2018-05-06T19:24:51.534Z,34.10
2018-05-06T19:27:19.894Z,35.30
2018-05-06T19:29:47.565Z,35.20
2018-05-06T19:32:15.181Z,37.10
2018-05-06T19:34:42.805Z,37.10
2018-05-06T19:37:11.187Z,39.70
2018-05-06T19:39:38.934Z,39.70
2018-05-06T19:42:06.511Z,39.30
2018-05-06T19:44:34.924Z,40.40
2018-05-06T19:47:02.516Z,40.30
2018-05-06T19:49:30.159Z,40.50
2018-05-06T19:51:58.605Z,40.90
2018-05-06T19:54:26.259Z,40.90
2018-05-06T19:56:53.878Z,41.20
2018-05-06T19:59:21.531Z,41.60
2018-05-06T20:01:51.151Z,42.00
2018-05-06T20:04:18.765Z,42.10
2018-05-06T20:06:47.159Z,42.50
2018-05-06T20:09:14.739Z,42.50
2018-05-06T20:11:42.373Z,42.60
2018-05-06T20:14:10.008Z,42.80
2018-05-06T20:16:38.362Z,42.70
2018-05-06T20:19:06.005Z,42.70
2018-05-06T20:21:33.750Z,43.10
2018-05-06T20:24:01.417Z,44.40
2018-05-06T20:26:29.042Z,44.50
2018-05-06T20:28:56.630Z,44.80
2018-05-06T20:31:24.340Z,44.50
2018-05-06T20:33:51.901Z,44.00
2018-05-06T20:36:19.486Z,44.10
2018-05-06T20:38:47.895Z,44.40
2018-05-06T20:41:23.051Z,44.40
2018-05-06T20:43:50.707Z,44.20
2018-05-06T20:46:18.338Z,43.90
2018-05-06T20:48:45.920Z,44.10
2018-05-06T20:51:13.580Z,43.50
2018-05-06T20:53:41.167Z,44.30
2018-05-06T20:56:08.742Z,44.30
2018-05-06T20:58:36.392Z,44.00
2018-05-06T21:01:04.032Z,44.20
2018-05-06T21:03:31.654Z,44.50
2018-05-06T21:06:00.058Z,44.20
2018-05-06T21:08:27.645Z,44.60
2018-05-06T21:10:55.292Z,44.70
2018-05-06T21:13:22.891Z,44.00
2018-05-06T21:15:50.522Z,45.00
2018-05-06T21:18:18.151Z,44.10
2018-05-06T21:20:45.774Z,43.70
2018-05-06T21:23:13.391Z,43.80
2018-05-06T21:25:41.091Z,43.60
2018-05-06T21:28:08.675Z,43.90
2018-05-06T21:30:36.302Z,44.30
2018-05-06T21:33:03.960Z,44.00
2018-05-06T21:35:31.699Z,44.00
2018-05-06T21:37:59.182Z,43.70
2018-05-06T21:40:26.825Z,44.10
2018-05-06T21:42:54.435Z,44.10
2018-05-06T21:45:22.088Z,44.00
2018-05-06T21:47:49.702Z,44.00
2018-05-06T21:50:17.293Z,44.40
2018-05-06T21:52:44.949Z,44.00
2018-05-06T21:55:12.546Z,44.20
2018-05-06T21:57:40.139Z,44.20
2018-05-06T22:00:08.562Z,44.70
2018-05-06T22:02:36.155Z,44.70
2018-05-06T22:05:03.793Z,44.80
2018-05-06T22:07:31.433Z,44.80
2018-05-06T22:09:59.081Z,45.30
2018-05-06T22:12:26.677Z,45.00
2018-05-06T22:14:54.303Z,45.30
2018-05-06T22:17:21.896Z,45.90
2018-05-06T22:19:49.521Z,45.70
2018-05-06T22:22:17.910Z,47.50
2018-05-06T22:24:45.574Z,47.40
2018-05-06T22:27:13.156Z,46.70
2018-05-06T22:29:40.739Z,47.30
2018-05-06T22:32:08.358Z,47.80
2018-05-06T22:34:35.999Z,48.50
2018-05-06T22:37:04.342Z,48.60
2018-05-06T22:39:31.970Z,48.60
2018-05-06T22:41:59.586Z,49.10
2018-05-06T22:44:27.161Z,48.50
2018-05-06T22:46:54.792Z,49.00
2018-05-06T22:49:22.467Z,49.10
2018-05-06T22:51:50.073Z,50.20
2018-05-06T22:54:17.685Z,49.40
2018-05-06T22:56:45.267Z,48.60
2018-05-06T22:59:12.889Z,48.30
2018-05-06T23:01:40.507Z,47.70
2018-05-06T23:04:08.098Z,46.40
2018-05-06T23:06:35.733Z,47.40
2018-05-06T23:24:17.806Z,47.20
2018-05-06T23:26:48.435Z,47.80
2018-05-06T23:29:16.093Z,47.70
2018-05-06T23:31:44.450Z,46.50
2018-05-06T23:34:12.060Z,46.50
2018-05-06T23:36:39.671Z,47.00
2018-05-06T23:39:07.280Z,46.40
2018-05-06T23:41:35.669Z,46.70
2018-05-06T23:44:03.294Z,46.60
2018-05-06T23:46:30.938Z,47.10
2018-05-06T23:48:58.614Z,47.50
2018-05-06T23:51:26.181Z,46.70
2018-05-06T23:53:53.775Z,46.50
2018-05-06T23:56:22.244Z,46.90
2018-05-06T23:58:49.777Z,46.90
